createdAt,value
2023-02-03T00:01:31.292Z,30.90
2023-02-03T00:03:58.143Z,31.10
2023-02-03T00:06:25.469Z,31.31
2023-02-03T00:08:55.977Z,31.03
2023-02-03T00:11:23.055Z,31.25
2023-02-03T00:13:49.921Z,31.15
2023-02-03T00:16:16.808Z,31.13
2023-02-03T00:18:43.673Z,31.33
2023-02-03T00:21:10.528Z,31.19
2023-02-03T00:23:37.370Z,31.25
2023-02-03T00:26:11.096Z,31.34
2023-02-03T00:28:39.013Z,31.51
2023-02-03T00:31:06.377Z,31.32
2023-02-03T00:33:33.909Z,31.20
2023-02-03T00:36:06.151Z,31.38
2023-02-03T00:38:33.000Z,31.44
2023-02-03T00:40:59.878Z,31.45
2023-02-03T00:43:26.771Z,31.70
2023-02-03T00:45:53.674Z,31.60
2023-02-03T00:48:20.922Z,31.68
2023-02-03T00:50:48.013Z,31.57
2023-02-03T00:53:14.966Z,31.43
2023-02-03T00:55:43.205Z,31.69
2023-02-03T00:58:10.454Z,31.38
2023-02-03T01:00:37.983Z,31.75
2023-02-03T01:03:04.994Z,31.55
2023-02-03T01:05:31.877Z,31.74
2023-02-03T01:08:00.771Z,31.90
2023-02-03T01:10:28.419Z,31.81
2023-02-03T01:12:55.498Z,31.67
2023-02-03T01:15:22.494Z,31.77
2023-02-03T01:17:49.395Z,31.84
2023-02-03T01:20:18.088Z,31.86
2023-02-03T01:22:44.929Z,31.73
2023-02-03T01:25:11.869Z,31.50
2023-02-03T01:27:38.758Z,31.76
2023-02-03T01:30:05.809Z,31.64
2023-02-03T01:32:32.680Z,32.00
2023-02-03T01:34:59.562Z,31.90
2023-02-03T01:37:26.614Z,31.76
2023-02-03T01:39:54.513Z,31.71
2023-02-03T01:42:21.379Z,31.55
2023-02-03T01:44:51.261Z,31.64
2023-02-03T01:47:27.212Z,31.63
2023-02-03T01:50:06.035Z,31.56
2023-02-03T01:52:33.051Z,31.68
2023-02-03T01:55:01.132Z,31.89
2023-02-03T01:57:32.482Z,31.79
2023-02-03T01:59:59.331Z,32.04
2023-02-03T02:02:28.022Z,31.99
2023-02-03T02:05:18.128Z,32.00
2023-02-03T02:07:45.079Z,31.99
2023-02-03T02:10:13.273Z,32.13
2023-02-03T02:12:42.227Z,32.07
2023-02-03T02:15:09.843Z,32.24
2023-02-03T02:18:01.083Z,32.03
2023-02-03T02:20:32.043Z,32.22
2023-02-03T02:23:25.067Z,32.25
2023-02-03T02:26:19.304Z,32.14
2023-02-03T02:28:58.264Z,32.33
2023-02-03T02:31:55.826Z,32.37
2023-02-03T02:34:34.650Z,32.06
2023-02-03T02:37:21.884Z,32.50
2023-02-03T02:39:54.208Z,32.31
2023-02-03T02:42:32.165Z,32.51
2023-02-03T02:45:10.977Z,32.35
2023-02-03T02:47:38.049Z,32.46
2023-02-03T02:50:16.848Z,32.33
2023-02-03T02:52:43.740Z,32.38
2023-02-03T02:55:15.188Z,32.51
2023-02-03T02:57:42.228Z,32.72
2023-02-03T03:00:09.790Z,32.46
2023-02-03T03:02:36.804Z,32.77
2023-02-03T03:05:05.898Z,32.92
2023-02-03T03:07:59.401Z,32.65
2023-02-03T03:10:27.722Z,32.77
2023-02-03T03:12:57.481Z,32.46
2023-02-03T03:15:27.368Z,32.61
2023-02-03T03:18:06.363Z,32.36
2023-02-03T03:20:33.328Z,32.07
2023-02-03T03:23:03.639Z,31.69
2023-02-03T03:25:34.920Z,31.58
2023-02-03T03:28:04.922Z,31.58
2023-02-03T03:30:36.708Z,31.02
2023-02-03T03:33:04.241Z,30.87
2023-02-03T03:35:59.709Z,30.70
2023-02-03T03:38:35.381Z,30.42
2023-02-03T03:41:24.049Z,30.20
2023-02-03T03:43:51.011Z,29.97
2023-02-03T03:46:20.943Z,29.59
2023-02-03T03:48:56.712Z,29.73
2023-02-03T03:51:35.957Z,29.23
2023-02-03T03:54:08.909Z,29.09
2023-02-03T03:56:51.717Z,28.92
2023-02-03T03:59:19.617Z,28.85
2023-02-03T04:01:47.436Z,28.45
2023-02-03T04:04:14.302Z,28.31
2023-02-03T04:06:41.262Z,28.30
2023-02-03T04:09:08.117Z,28.08
2023-02-03T04:11:53.694Z,27.82
2023-02-03T04:14:20.625Z,27.86
2023-02-03T04:16:47.459Z,27.48
2023-02-03T04:19:14.340Z,27.36
2023-02-03T04:21:41.206Z,27.46
2023-02-03T04:24:08.108Z,26.97
2023-02-03T04:26:35.034Z,26.87
2023-02-03T04:29:03.320Z,26.62
2023-02-03T04:31:30.228Z,26.63
2023-02-03T04:33:57.219Z,26.63
2023-02-03T04:36:24.083Z,26.25
2023-02-03T04:38:50.980Z,26.04
2023-02-03T04:41:18.090Z,26.07
2023-02-03T04:43:44.972Z,25.77
2023-02-03T04:46:11.892Z,25.61
2023-02-03T04:48:38.852Z,25.55
2023-02-03T04:51:07.875Z,25.45
2023-02-03T04:53:35.394Z,25.27
2023-02-03T04:56:03.031Z,25.47
2023-02-03T04:58:30.065Z,25.47
2023-02-03T05:00:57.185Z,25.50
2023-02-03T05:03:26.199Z,25.39
2023-02-03T05:05:56.492Z,25.17
2023-02-03T05:08:23.483Z,25.16
2023-02-03T05:10:50.415Z,25.00
2023-02-03T05:13:17.341Z,24.85
2023-02-03T05:15:44.204Z,24.41
2023-02-03T05:18:11.099Z,24.05
2023-02-03T05:20:38.178Z,23.80
2023-02-03T05:23:05.187Z,23.75
2023-02-03T05:25:32.149Z,23.69
2023-02-03T05:27:59.396Z,23.43
2023-02-03T05:30:26.975Z,23.46
2023-02-03T05:32:54.215Z,23.62
2023-02-03T05:35:21.326Z,23.67
2023-02-03T05:37:49.141Z,23.75
2023-02-03T05:40:45.649Z,23.66
2023-02-03T05:43:12.968Z,23.61
2023-02-03T05:45:40.104Z,23.65
2023-02-03T05:48:10.246Z,23.97
2023-02-03T05:50:38.701Z,24.37
2023-02-03T05:53:09.190Z,24.32
2023-02-03T05:55:37.949Z,24.56
2023-02-03T05:58:05.108Z,24.75
2023-02-03T06:00:32.081Z,24.83
2023-02-03T06:02:59.816Z,25.03
2023-02-03T06:05:26.895Z,25.17
2023-02-03T06:07:54.256Z,25.38
2023-02-03T06:10:21.892Z,25.67
2023-02-03T06:12:49.234Z,25.97
2023-02-03T06:15:16.386Z,25.88
2023-02-03T06:17:46.824Z,25.49
2023-02-03T06:20:14.716Z,25.70
2023-02-03T06:22:41.846Z,25.92
2023-02-03T06:25:11.828Z,26.02
2023-02-03T06:27:40.333Z,26.31
2023-02-03T06:30:07.975Z,26.38
2023-02-03T06:32:34.941Z,26.45
2023-02-03T06:35:01.832Z,26.87
2023-02-03T06:37:28.748Z,27.01
2023-02-03T06:39:55.758Z,27.04
2023-02-03T06:42:22.957Z,27.26
2023-02-03T06:44:50.203Z,27.08
2023-02-03T06:47:17.214Z,26.77
2023-02-03T06:49:44.155Z,26.92
2023-02-03T06:52:11.177Z,24.51
2023-02-03T06:54:38.353Z,25.83
2023-02-03T06:57:05.518Z,26.27
2023-02-03T07:02:00.246Z,26.44
2023-02-03T07:04:30.247Z,26.12
2023-02-03T07:06:57.808Z,25.92
2023-02-03T07:09:25.066Z,26.00
2023-02-03T07:11:52.061Z,25.99
2023-02-03T07:14:19.063Z,25.74
2023-02-03T07:16:46.010Z,22.83
2023-02-03T07:19:13.158Z,24.69
2023-02-03T07:21:40.081Z,25.34
2023-02-03T07:24:07.471Z,25.34
2023-02-03T07:26:34.516Z,25.36
2023-02-03T07:29:01.573Z,25.47
2023-02-03T07:31:28.655Z,25.45
2023-02-03T07:33:56.410Z,25.02
2023-02-03T07:36:24.383Z,25.46
2023-02-03T07:38:51.472Z,26.12
2023-02-03T07:41:18.540Z,26.03
2023-02-03T07:43:45.528Z,26.18
2023-02-03T07:46:12.908Z,26.17
2023-02-03T07:48:39.879Z,26.51
2023-02-03T07:51:06.952Z,26.51
2023-02-03T07:53:33.970Z,26.22
2023-02-03T07:56:02.010Z,26.40
2023-02-03T07:58:29.629Z,26.32
2023-02-03T08:00:57.076Z,24.57
2023-02-03T08:03:24.179Z,24.04
2023-02-03T08:05:51.953Z,24.24
2023-02-03T08:08:18.903Z,24.51
2023-02-03T08:10:45.832Z,24.50
2023-02-03T08:13:12.776Z,24.29
2023-02-03T08:15:39.728Z,24.40
2023-02-03T08:18:08.873Z,24.44
2023-02-03T08:20:35.955Z,24.51
2023-02-03T08:23:03.003Z,24.83
2023-02-03T08:25:29.975Z,25.23
2023-02-03T08:27:57.036Z,25.78
2023-02-03T08:30:24.197Z,26.16
2023-02-03T08:32:55.866Z,26.81
2023-02-03T08:35:41.147Z,27.11
2023-02-03T08:38:08.238Z,27.41
2023-02-03T08:40:35.218Z,27.73
2023-02-03T08:43:02.249Z,28.01
2023-02-03T08:45:29.315Z,28.34
2023-02-03T08:47:57.179Z,28.45
2023-02-03T08:50:24.218Z,28.66
2023-02-03T08:52:51.240Z,29.05
2023-02-03T08:55:18.342Z,28.97
2023-02-03T08:57:45.907Z,29.06
2023-02-03T09:00:13.561Z,26.20
2023-02-03T09:02:40.600Z,25.72
2023-02-03T09:05:08.089Z,26.28
2023-02-03T09:07:35.189Z,26.67
2023-02-03T09:10:02.219Z,26.83
2023-02-03T09:12:29.182Z,27.15
2023-02-03T09:14:56.212Z,27.50
2023-02-03T09:17:23.211Z,28.32
2023-02-03T09:19:50.182Z,29.66
2023-02-03T09:22:17.229Z,30.26
2023-02-03T09:24:44.335Z,30.43
2023-02-03T09:27:11.627Z,30.23
2023-02-03T09:29:38.608Z,30.72
2023-02-03T09:32:08.967Z,31.08
2023-02-03T09:34:36.563Z,30.96
2023-02-03T09:37:04.545Z,31.20
2023-02-03T09:39:31.764Z,29.06
2023-02-03T09:42:19.734Z,29.87
2023-02-03T09:44:59.117Z,29.43
2023-02-03T09:47:28.671Z,29.23
2023-02-03T09:49:57.471Z,29.16
2023-02-03T09:52:28.899Z,29.24
2023-02-03T09:54:58.620Z,28.96
2023-02-03T09:57:27.529Z,28.85
2023-02-03T09:59:55.914Z,28.67
2023-02-03T10:02:45.555Z,28.70
2023-02-03T10:05:35.487Z,28.50
2023-02-03T10:08:27.353Z,27.84
2023-02-03T10:11:10.782Z,28.14
2023-02-03T10:13:53.603Z,28.33
2023-02-03T10:16:37.097Z,28.22
2023-02-03T10:19:09.473Z,27.54
2023-02-03T10:21:42.999Z,28.00
2023-02-03T10:24:12.683Z,28.30
2023-02-03T10:26:40.013Z,28.38
2023-02-03T10:29:14.913Z,28.32
2023-02-03T10:31:42.117Z,28.52
2023-02-03T10:34:13.424Z,28.41
2023-02-03T10:37:02.887Z,28.27
2023-02-03T10:39:32.210Z,28.11
2023-02-03T10:42:00.345Z,27.84
2023-02-03T10:44:33.766Z,27.81
2023-02-03T10:47:00.765Z,27.75
2023-02-03T10:49:28.786Z,27.49
2023-02-03T10:51:58.312Z,27.37
2023-02-03T10:54:32.904Z,27.34
2023-02-03T10:57:13.000Z,27.15
2023-02-03T10:59:42.850Z,27.12
2023-02-03T11:02:20.064Z,27.04
2023-02-03T11:04:47.003Z,26.89
2023-02-03T11:07:26.960Z,26.77
2023-02-03T11:09:53.891Z,26.81
2023-02-03T11:12:20.938Z,26.67
2023-02-03T11:14:49.271Z,26.55
2023-02-03T11:17:20.264Z,26.53
2023-02-03T11:19:47.709Z,26.39
2023-02-03T11:22:31.615Z,26.39
2023-02-03T11:24:58.808Z,26.36
2023-02-03T11:27:27.813Z,26.12
2023-02-03T11:30:25.049Z,26.06
2023-02-03T11:32:52.972Z,26.24
2023-02-03T11:35:24.775Z,26.12
2023-02-03T11:37:53.261Z,25.99
2023-02-03T11:40:26.807Z,26.06
2023-02-03T11:42:56.978Z,25.96
2023-02-03T11:45:27.586Z,26.12
2023-02-03T11:47:57.218Z,25.98
2023-02-03T11:50:33.026Z,26.07
2023-02-03T11:53:15.198Z,25.86
2023-02-03T11:55:57.359Z,25.68
2023-02-03T11:58:39.511Z,25.95
2023-02-03T12:01:40.332Z,25.81
2023-02-03T12:04:25.696Z,25.92
2023-02-03T12:06:58.726Z,25.85
2023-02-03T12:10:19.844Z,26.02
2023-02-03T12:13:12.781Z,26.78
2023-02-03T12:15:54.855Z,26.41
2023-02-03T12:18:37.225Z,27.06
2023-02-03T12:21:33.191Z,27.42
2023-02-03T12:24:06.176Z,27.81
2023-02-03T12:26:55.490Z,25.12
2023-02-03T12:29:32.533Z,25.51
2023-02-03T12:32:18.861Z,25.89
2023-02-03T12:35:04.526Z,26.74
2023-02-03T12:37:50.316Z,27.06
2023-02-03T12:40:19.053Z,27.52
2023-02-03T12:42:58.588Z,28.29
2023-02-03T12:45:28.968Z,28.22
2023-02-03T12:48:07.175Z,27.93
2023-02-03T12:50:37.772Z,27.85
2023-02-03T12:53:15.478Z,28.13
2023-02-03T12:55:47.876Z,27.81
2023-02-03T12:58:25.552Z,27.75
2023-02-03T13:00:57.943Z,27.49
2023-02-03T13:03:30.303Z,27.72
2023-02-03T13:06:02.748Z,27.68
2023-02-03T13:08:33.683Z,27.47
2023-02-03T13:11:09.797Z,27.47
2023-02-03T13:13:41.036Z,27.60
2023-02-03T13:16:09.111Z,27.53
2023-02-03T13:18:37.995Z,27.35
2023-02-03T13:21:05.120Z,27.43
2023-02-03T13:23:32.098Z,27.54
2023-02-03T13:26:16.685Z,27.53
2023-02-03T13:28:53.545Z,27.17
2023-02-03T13:31:26.440Z,27.28
2023-02-03T13:34:24.923Z,27.31
2023-02-03T13:37:29.230Z,27.57
2023-02-03T13:40:20.287Z,28.90
2023-02-03T13:43:05.802Z,29.31
2023-02-03T13:45:38.115Z,29.14
2023-02-03T13:48:09.520Z,29.39
2023-02-03T13:50:36.555Z,29.34
2023-02-03T13:53:07.309Z,29.30
2023-02-03T13:55:39.950Z,29.24
2023-02-03T13:58:18.461Z,29.48
2023-02-03T14:00:45.648Z,29.60
2023-02-03T14:03:19.587Z,29.40
2023-02-03T14:05:51.203Z,29.59
2023-02-03T14:08:30.322Z,29.75
2023-02-03T14:11:34.793Z,29.90
2023-02-03T14:14:07.945Z,29.73
2023-02-03T14:16:36.071Z,29.83
2023-02-03T14:19:03.478Z,29.89
2023-02-03T14:21:45.941Z,29.91
2023-02-03T14:24:13.096Z,30.08
2023-02-03T14:26:42.527Z,29.98
2023-02-03T14:29:10.875Z,30.13
2023-02-03T14:32:13.493Z,30.30
2023-02-03T14:34:47.613Z,30.53
2023-02-03T14:37:23.702Z,30.30
2023-02-03T14:40:07.179Z,30.63
2023-02-03T14:43:11.705Z,30.65
2023-02-03T14:45:39.037Z,30.65
2023-02-03T14:48:24.138Z,30.42
2023-02-03T14:50:58.248Z,30.87
2023-02-03T14:53:45.619Z,30.98
2023-02-03T14:57:15.795Z,30.98
2023-02-03T14:59:56.449Z,31.17
2023-02-03T15:02:27.665Z,31.20
2023-02-03T15:05:33.022Z,31.02
2023-02-03T15:08:02.588Z,31.04
2023-02-03T15:10:41.690Z,31.20
2023-02-03T15:13:35.045Z,31.21
2023-02-03T15:16:04.281Z,31.27
2023-02-03T15:18:37.647Z,31.56
2023-02-03T15:21:04.963Z,31.71
2023-02-03T15:23:41.984Z,31.83
2023-02-03T15:26:32.281Z,32.06
2023-02-03T15:29:03.910Z,31.82
2023-02-03T15:31:45.745Z,32.03
2023-02-03T15:34:44.038Z,32.25
2023-02-03T15:37:44.723Z,31.95
2023-02-03T15:40:18.930Z,32.16
2023-02-03T15:43:19.364Z,32.29
2023-02-03T15:46:06.511Z,32.46
2023-02-03T15:48:44.867Z,32.54
2023-02-03T15:51:20.294Z,32.71
2023-02-03T15:53:56.621Z,32.56
2023-02-03T15:56:28.530Z,32.75
2023-02-03T15:58:55.430Z,32.95
2023-02-03T16:01:23.570Z,32.86
2023-02-03T16:03:54.476Z,32.96
2023-02-03T16:06:39.237Z,33.29
2023-02-03T16:09:07.184Z,33.17
2023-02-03T16:11:35.537Z,33.39
2023-02-03T16:14:11.643Z,33.05
2023-02-03T16:17:04.904Z,33.33
2023-02-03T16:19:38.114Z,33.66
2023-02-03T16:22:05.306Z,33.55
2023-02-03T16:24:46.046Z,33.81
2023-02-03T16:27:28.333Z,33.74
2023-02-03T16:30:26.623Z,34.65
2023-02-03T16:33:27.506Z,33.89
2023-02-03T16:36:13.817Z,33.63
2023-02-03T16:39:06.273Z,33.74
2023-02-03T16:41:51.790Z,33.74
2023-02-03T16:44:37.355Z,33.82
2023-02-03T16:47:22.775Z,33.70
2023-02-03T16:50:08.216Z,34.08
2023-02-03T16:52:35.114Z,34.29
2023-02-03T16:55:01.957Z,34.14
2023-02-03T16:57:28.879Z,34.25
2023-02-03T16:59:55.830Z,34.44
2023-02-03T17:02:22.776Z,34.23
2023-02-03T17:04:49.687Z,34.35
2023-02-03T17:07:16.588Z,34.29
2023-02-03T17:09:43.458Z,34.76
2023-02-03T17:12:11.694Z,34.51
2023-02-03T17:14:38.592Z,34.54
2023-02-03T17:17:05.510Z,34.83
2023-02-03T17:19:32.814Z,34.54
2023-02-03T17:21:59.849Z,34.87
2023-02-03T17:24:26.732Z,34.97
2023-02-03T17:26:54.758Z,34.99
2023-02-03T17:29:21.929Z,34.73
2023-02-03T17:31:48.810Z,35.05
2023-02-03T17:34:15.652Z,35.13
2023-02-03T17:36:42.564Z,35.04
2023-02-03T17:55:33.260Z,35.30
2023-02-03T17:58:00.577Z,35.26
2023-02-03T18:00:27.825Z,35.29
2023-02-03T18:02:55.294Z,35.69
2023-02-03T18:05:22.688Z,35.53
2023-02-03T18:07:49.868Z,35.75
2023-02-03T18:10:17.120Z,35.84
2023-02-03T18:12:44.083Z,35.77
2023-02-03T18:15:10.939Z,35.67
2023-02-03T18:17:37.855Z,35.94
2023-02-03T18:20:05.074Z,35.57
2023-02-03T18:22:32.272Z,35.82
2023-02-03T18:24:59.133Z,36.15
2023-02-03T18:27:26.099Z,36.21
2023-02-03T18:29:53.036Z,37.04
2023-02-03T18:32:20.594Z,37.48
2023-02-03T18:34:47.468Z,36.72
2023-02-03T18:37:14.349Z,36.50
2023-02-03T18:39:41.219Z,36.48
2023-02-03T18:42:08.193Z,36.14
2023-02-03T18:44:35.602Z,35.94
2023-02-03T18:47:07.139Z,36.02
2023-02-03T18:49:38.115Z,36.40
2023-02-03T18:52:05.231Z,35.90
2023-02-03T18:54:32.156Z,36.02
2023-02-03T18:56:59.143Z,35.84
2023-02-03T18:59:26.493Z,35.98
2023-02-03T19:01:53.370Z,36.27
2023-02-03T19:04:20.373Z,36.12
2023-02-03T19:06:47.693Z,36.33
2023-02-03T19:09:17.014Z,35.77
2023-02-03T19:11:44.450Z,36.06
2023-02-03T19:14:12.528Z,35.80
2023-02-03T19:16:39.480Z,36.36
2023-02-03T19:19:06.379Z,36.05
2023-02-03T19:21:33.225Z,36.03
2023-02-03T19:24:00.089Z,36.36
2023-02-03T19:26:27.980Z,36.16
2023-02-03T19:28:55.878Z,36.16
2023-02-03T19:31:22.943Z,36.37
2023-02-03T19:33:49.978Z,36.29
2023-02-03T19:36:16.847Z,36.06
2023-02-03T19:38:43.684Z,36.62
2023-02-03T19:41:11.788Z,36.54
2023-02-03T19:43:40.020Z,36.13
2023-02-03T19:46:07.781Z,36.31
2023-02-03T19:48:34.694Z,36.65
2023-02-03T19:51:01.561Z,36.71
2023-02-03T19:53:28.426Z,36.68
2023-02-03T19:55:55.310Z,36.82
2023-02-03T19:58:24.041Z,36.38
2023-02-03T20:00:51.076Z,36.98
2023-02-03T20:03:19.757Z,36.60
2023-02-03T20:05:46.831Z,36.58
2023-02-03T20:08:14.873Z,36.90
2023-02-03T20:10:44.683Z,36.88
2023-02-03T20:13:15.052Z,36.72
2023-02-03T20:15:42.018Z,36.96
2023-02-03T20:18:09.008Z,36.94
2023-02-03T20:20:35.985Z,37.04
2023-02-03T20:23:02.877Z,36.97
2023-02-03T20:25:29.819Z,36.94
2023-02-03T20:27:58.180Z,36.96
2023-02-03T20:30:25.326Z,37.17
2023-02-03T20:32:54.610Z,37.22
2023-02-03T20:35:23.678Z,37.05
2023-02-03T20:37:50.780Z,37.24
2023-02-03T20:40:18.082Z,37.30
2023-02-03T20:42:44.928Z,37.11
2023-02-03T20:45:18.183Z,37.22
2023-02-03T20:47:45.291Z,37.16
2023-02-03T20:50:26.927Z,37.62
2023-02-03T20:52:58.404Z,37.41
2023-02-03T20:55:25.332Z,37.37
2023-02-03T20:57:54.789Z,37.55
2023-02-03T21:00:23.788Z,37.70
2023-02-03T21:03:09.213Z,37.50
2023-02-03T21:05:38.521Z,37.40
2023-02-03T21:08:15.438Z,37.53
2023-02-03T21:10:42.436Z,37.64
2023-02-03T21:13:26.528Z,37.65
2023-02-03T21:15:55.126Z,37.70
2023-02-03T21:18:45.845Z,37.73
2023-02-03T21:21:16.701Z,37.49
2023-02-03T21:23:46.937Z,37.87
2023-02-03T21:26:25.027Z,37.83
2023-02-03T21:28:53.526Z,37.70
2023-02-03T21:31:28.393Z,37.92
2023-02-03T21:33:56.753Z,37.79
2023-02-03T21:36:25.031Z,37.73
2023-02-03T21:38:56.069Z,37.50
2023-02-03T21:41:24.131Z,37.65
2023-02-03T21:43:55.127Z,37.87
2023-02-03T21:46:25.677Z,37.93
2023-02-03T21:48:59.418Z,37.74
2023-02-03T21:51:36.544Z,37.76
2023-02-03T21:54:15.908Z,37.73
2023-02-03T21:56:43.193Z,37.87
2023-02-03T21:59:21.186Z,38.21
2023-02-03T22:01:48.173Z,38.06
2023-02-03T22:04:15.190Z,38.07
2023-02-03T22:06:47.129Z,38.35
2023-02-03T22:09:15.448Z,38.18
2023-02-03T22:11:42.305Z,38.34
2023-02-03T22:14:09.138Z,38.33
2023-02-03T22:16:36.161Z,38.32
2023-02-03T22:19:03.082Z,38.16
2023-02-03T22:21:29.926Z,38.05
2023-02-03T22:23:57.482Z,38.10
2023-02-03T22:26:24.345Z,38.24
2023-02-03T22:28:51.226Z,38.56
2023-02-03T22:31:18.286Z,38.40
2023-02-03T22:33:45.662Z,38.28
2023-02-03T22:36:12.682Z,38.24
2023-02-03T22:38:39.966Z,38.60
2023-02-03T22:41:07.730Z,38.66
2023-02-03T22:43:34.800Z,38.48
2023-02-03T22:46:01.913Z,38.35
2023-02-03T22:48:29.272Z,38.86
2023-02-03T22:50:58.217Z,38.72
2023-02-03T22:53:25.793Z,38.78
2023-02-03T22:55:52.623Z,38.75
2023-02-03T22:58:19.450Z,38.95
2023-02-03T23:00:46.334Z,38.87
2023-02-03T23:03:13.257Z,39.14
2023-02-03T23:05:40.231Z,39.13
2023-02-03T23:08:07.105Z,39.09
2023-02-03T23:10:34.290Z,38.91
2023-02-03T23:13:01.414Z,38.42
2023-02-03T23:15:28.560Z,38.30
2023-02-03T23:17:55.513Z,38.05
2023-02-03T23:20:22.469Z,37.49
2023-02-03T23:22:49.372Z,37.50
2023-02-03T23:25:16.278Z,37.46
2023-02-03T23:27:43.234Z,37.18
2023-02-03T23:30:10.912Z,37.10
2023-02-03T23:32:37.826Z,36.64
2023-02-03T23:35:23.732Z,36.64
2023-02-03T23:37:50.578Z,36.41
2023-02-03T23:40:17.650Z,36.28
2023-02-03T23:42:44.531Z,35.80
2023-02-03T23:45:12.656Z,35.73
2023-02-03T23:47:40.649Z,35.83
2023-02-03T23:50:08.788Z,35.25
2023-02-03T23:52:35.907Z,35.33
2023-02-03T23:55:13.514Z,35.47
2023-02-03T23:57:42.608Z,35.31
